sensor_id;sensor_type;location;lat;lon;timestamp;P1;durP1;ratioP1;P2;durP2;ratioP2
51194;SDS011;37259;49.972;19.850;2022-12-29T00:00:02;7.9;;;3.8;;
51194;SDS011;37259;49.972;19.850;2022-12-29T00:01:02;14.4;;;8.9;;
51194;SDS011;37259;49.972;19.850;2022-12-29T00:02:02;14.4;;;8.9;;
51194;SDS011;37259;49.972;19.850;2022-12-29T00:03:02;14.4;;;8.9;;
51194;SDS011;37259;49.972;19.850;2022-12-29T00:04:02;14.4;;;8.9;;
51194;SDS011;37259;49.972;19.850;2022-12-29T00:05:02;14.4;;;8.9;;
51194;SDS011;37259;49.972;19.850;2022-12-29T00:06:02;14.4;;;8.9;;
51194;SDS011;37259;49.972;19.850;2022-12-29T00:07:02;14.4;;;8.9;;
51194;SDS011;37259;49.972;19.850;2022-12-29T00:08:02;14.4;;;8.9;;
51194;SDS011;37259;49.972;19.850;2022-12-29T00:09:02;14.4;;;8.9;;
51194;SDS011;37259;49.972;19.850;2022-12-29T00:10:02;14.4;;;8.9;;
51194;SDS011;37259;49.972;19.850;2022-12-29T00:11:02;14.4;;;8.9;;
51194;SDS011;37259;49.972;19.850;2022-12-29T00:12:02;14.4;;;8.9;;
51194;SDS011;37259;49.972;19.850;2022-12-29T00:13:02;14.4;;;8.9;;
51194;SDS011;37259;49.972;19.850;2022-12-29T00:14:02;14.4;;;8.9;;
51194;SDS011;37259;49.972;19.850;2022-12-29T00:15:02;14.4;;;8.9;;
51194;SDS011;37259;49.972;19.850;2022-12-29T00:16:02;14.4;;;8.9;;
51194;SDS011;37259;49.972;19.850;2022-12-29T00:17:02;14.4;;;8.9;;
51194;SDS011;37259;49.972;19.850;2022-12-29T00:18:02;14.4;;;8.9;;
51194;SDS011;37259;49.972;19.850;2022-12-29T00:19:02;14.4;;;8.9;;
51194;SDS011;37259;49.972;19.850;2022-12-29T00:20:02;14.4;;;8.9;;
51194;SDS011;37259;49.972;19.850;2022-12-29T00:21:02;14.4;;;8.9;;
51194;SDS011;37259;49.972;19.850;2022-12-29T00:22:02;14.4;;;8.9;;
51194;SDS011;37259;49.972;19.850;2022-12-29T00:23:02;14.4;;;8.9;;
51194;SDS011;37259;49.972;19.850;2022-12-29T00:24:02;14.4;;;8.9;;
51194;SDS011;37259;49.972;19.850;2022-12-29T00:25:02;14.4;;;8.9;;
51194;SDS011;37259;49.972;19.850;2022-12-29T00:26:02;14.4;;;8.9;;
51194;SDS011;37259;49.972;19.850;2022-12-29T00:27:10;14.4;;;8.9;;
51194;SDS011;37259;49.972;19.850;2022-12-29T00:28:02;14.4;;;8.9;;
51194;SDS011;37259;49.972;19.850;2022-12-29T00:29:02;14.4;;;8.9;;
51194;SDS011;37259;49.972;19.850;2022-12-29T00:30:02;14.4;;;8.9;;
51194;SDS011;37259;49.972;19.850;2022-12-29T00:31:03;15.9;;;9.5;;
51194;SDS011;37259;49.972;19.850;2022-12-29T00:32:02;15.9;;;9.5;;
51194;SDS011;37259;49.972;19.850;2022-12-29T00:33:08;15.9;;;9.5;;
51194;SDS011;37259;49.972;19.850;2022-12-29T00:34:02;15.9;;;9.5;;
51194;SDS011;37259;49.972;19.850;2022-12-29T00:35:02;15.9;;;9.5;;
51194;SDS011;37259;49.972;19.850;2022-12-29T00:36:03;15.9;;;9.5;;
51194;SDS011;37259;49.972;19.850;2022-12-29T00:37:02;15.9;;;9.5;;
51194;SDS011;37259;49.972;19.850;2022-12-29T00:38:03;15.9;;;9.5;;
51194;SDS011;37259;49.972;19.850;2022-12-29T00:39:03;15.9;;;9.5;;
51194;SDS011;37259;49.972;19.850;2022-12-29T00:40:02;15.9;;;9.5;;
51194;SDS011;37259;49.972;19.850;2022-12-29T00:41:02;15.9;;;9.5;;
51194;SDS011;37259;49.972;19.850;2022-12-29T00:42:02;15.9;;;9.5;;
51194;SDS011;37259;49.972;19.850;2022-12-29T00:43:02;15.9;;;9.5;;
51194;SDS011;37259;49.972;19.850;2022-12-29T00:44:02;15.9;;;9.5;;
51194;SDS011;37259;49.972;19.850;2022-12-29T00:45:02;15.9;;;9.5;;
51194;SDS011;37259;49.972;19.850;2022-12-29T00:46:02;15.9;;;9.5;;
51194;SDS011;37259;49.972;19.850;2022-12-29T00:47:02;15.9;;;9.5;;
51194;SDS011;37259;49.972;19.850;2022-12-29T00:48:02;15.9;;;9.5;;
51194;SDS011;37259;49.972;19.850;2022-12-29T00:49:02;15.9;;;9.5;;
51194;SDS011;37259;49.972;19.850;2022-12-29T00:50:02;15.9;;;9.5;;
51194;SDS011;37259;49.972;19.850;2022-12-29T00:51:02;15.9;;;9.5;;
51194;SDS011;37259;49.972;19.850;2022-12-29T00:52:03;15.9;;;9.5;;
51194;SDS011;37259;49.972;19.850;2022-12-29T00:53:02;15.9;;;9.5;;
51194;SDS011;37259;49.972;19.850;2022-12-29T00:54:02;15.9;;;9.5;;
51194;SDS011;37259;49.972;19.850;2022-12-29T00:55:02;15.9;;;9.5;;
51194;SDS011;37259;49.972;19.850;2022-12-29T00:56:02;15.9;;;9.5;;
51194;SDS011;37259;49.972;19.850;2022-12-29T00:57:02;15.9;;;9.5;;
51194;SDS011;37259;49.972;19.850;2022-12-29T00:58:02;15.9;;;9.5;;
51194;SDS011;37259;49.972;19.850;2022-12-29T00:59:02;15.9;;;9.5;;
51194;SDS011;37259;49.972;19.850;2022-12-29T01:00:02;10.6;;;6.6;;
51194;SDS011;37259;49.972;19.850;2022-12-29T01:01:02;10.6;;;6.6;;
51194;SDS011;37259;49.972;19.850;2022-12-29T01:02:02;10.6;;;6.6;;
51194;SDS011;37259;49.972;19.850;2022-12-29T01:03:02;10.6;;;6.6;;
51194;SDS011;37259;49.972;19.850;2022-12-29T01:04:02;10.6;;;6.6;;
51194;SDS011;37259;49.972;19.850;2022-12-29T01:05:02;10.6;;;6.6;;
51194;SDS011;37259;49.972;19.850;2022-12-29T01:06:02;10.6;;;6.6;;
51194;SDS011;37259;49.972;19.850;2022-12-29T01:07:02;10.6;;;6.6;;
51194;SDS011;37259;49.972;19.850;2022-12-29T01:08:02;10.6;;;6.6;;
51194;SDS011;37259;49.972;19.850;2022-12-29T01:09:02;10.6;;;6.6;;
51194;SDS011;37259;49.972;19.850;2022-12-29T01:10:02;10.6;;;6.6;;
51194;SDS011;37259;49.972;19.850;2022-12-29T01:11:03;10.6;;;6.6;;
51194;SDS011;37259;49.972;19.850;2022-12-29T01:12:02;10.6;;;6.6;;
51194;SDS011;37259;49.972;19.850;2022-12-29T01:13:02;10.6;;;6.6;;
51194;SDS011;37259;49.972;19.850;2022-12-29T01:14:02;10.6;;;6.6;;
51194;SDS011;37259;49.972;19.850;2022-12-29T01:15:02;10.6;;;6.6;;
51194;SDS011;37259;49.972;19.850;2022-12-29T01:16:02;10.6;;;6.6;;
51194;SDS011;37259;49.972;19.850;2022-12-29T01:17:02;10.6;;;6.6;;
51194;SDS011;37259;49.972;19.850;2022-12-29T01:18:02;10.6;;;6.6;;
51194;SDS011;37259;49.972;19.850;2022-12-29T01:19:02;10.6;;;6.6;;
51194;SDS011;37259;49.972;19.850;2022-12-29T01:20:02;10.6;;;6.6;;
51194;SDS011;37259;49.972;19.850;2022-12-29T01:21:03;10.6;;;6.6;;
51194;SDS011;37259;49.972;19.850;2022-12-29T01:22:02;10.6;;;6.6;;
51194;SDS011;37259;49.972;19.850;2022-12-29T01:23:02;10.6;;;6.6;;
51194;SDS011;37259;49.972;19.850;2022-12-29T01:24:02;10.6;;;6.6;;
51194;SDS011;37259;49.972;19.850;2022-12-29T01:25:02;10.6;;;6.6;;
51194;SDS011;37259;49.972;19.850;2022-12-29T01:26:08;10.6;;;6.6;;
51194;SDS011;37259;49.972;19.850;2022-12-29T01:27:02;10.6;;;6.6;;
51194;SDS011;37259;49.972;19.850;2022-12-29T01:28:02;10.6;;;6.6;;
51194;SDS011;37259;49.972;19.850;2022-12-29T01:29:02;10.6;;;6.6;;
51194;SDS011;37259;49.972;19.850;2022-12-29T01:30:02;7;;;3.3;;
51194;SDS011;37259;49.972;19.850;2022-12-29T01:31:02;7;;;3.3;;
51194;SDS011;37259;49.972;19.850;2022-12-29T01:32:02;7;;;3.3;;
51194;SDS011;37259;49.972;19.850;2022-12-29T01:33:02;7;;;3.3;;
51194;SDS011;37259;49.972;19.850;2022-12-29T01:34:02;7;;;3.3;;
51194;SDS011;37259;49.972;19.850;2022-12-29T01:35:02;7;;;3.3;;
51194;SDS011;37259;49.972;19.850;2022-12-29T01:36:02;7;;;3.3;;
51194;SDS011;37259;49.972;19.850;2022-12-29T01:37:02;7;;;3.3;;
51194;SDS011;37259;49.972;19.850;2022-12-29T01:38:02;7;;;3.3;;
51194;SDS011;37259;49.972;19.850;2022-12-29T01:39:02;7;;;3.3;;
51194;SDS011;37259;49.972;19.850;2022-12-29T01:40:02;7;;;3.3;;
51194;SDS011;37259;49.972;19.850;2022-12-29T01:41:02;7;;;3.3;;
51194;SDS011;37259;49.972;19.850;2022-12-29T01:42:02;7;;;3.3;;
51194;SDS011;37259;49.972;19.850;2022-12-29T01:43:02;7;;;3.3;;
51194;SDS011;37259;49.972;19.850;2022-12-29T01:44:02;7;;;3.3;;
51194;SDS011;37259;49.972;19.850;2022-12-29T01:45:03;7;;;3.3;;
51194;SDS011;37259;49.972;19.850;2022-12-29T01:46:02;7;;;3.3;;
51194;SDS011;37259;49.972;19.850;2022-12-29T01:47:02;7;;;3.3;;
51194;SDS011;37259;49.972;19.850;2022-12-29T01:48:03;7;;;3.3;;
51194;SDS011;37259;49.972;19.850;2022-12-29T01:49:03;7;;;3.3;;
51194;SDS011;37259;49.972;19.850;2022-12-29T01:50:03;7;;;3.3;;
51194;SDS011;37259;49.972;19.850;2022-12-29T01:51:02;7;;;3.3;;
51194;SDS011;37259;49.972;19.850;2022-12-29T01:52:02;7;;;3.3;;
51194;SDS011;37259;49.972;19.850;2022-12-29T01:53:03;7;;;3.3;;
51194;SDS011;37259;49.972;19.850;2022-12-29T01:54:02;7;;;3.3;;
51194;SDS011;37259;49.972;19.850;2022-12-29T01:55:02;7;;;3.3;;
51194;SDS011;37259;49.972;19.850;2022-12-29T01:56:03;7;;;3.3;;
51194;SDS011;37259;49.972;19.850;2022-12-29T01:57:03;7;;;3.3;;
51194;SDS011;37259;49.972;19.850;2022-12-29T01:58:03;7;;;3.3;;
51194;SDS011;37259;49.972;19.850;2022-12-29T01:59:03;7;;;3.3;;
51194;SDS011;37259;49.972;19.850;2022-12-29T02:00:03;5.6;;;2.9;;
51194;SDS011;37259;49.972;19.850;2022-12-29T02:01:02;5.6;;;2.9;;
51194;SDS011;37259;49.972;19.850;2022-12-29T02:02:02;5.6;;;2.9;;
51194;SDS011;37259;49.972;19.850;2022-12-29T02:03:02;5.6;;;2.9;;
51194;SDS011;37259;49.972;19.850;2022-12-29T02:04:02;5.6;;;2.9;;
51194;SDS011;37259;49.972;19.850;2022-12-29T02:05:03;5.6;;;2.9;;
51194;SDS011;37259;49.972;19.850;2022-12-29T02:06:03;5.6;;;2.9;;
51194;SDS011;37259;49.972;19.850;2022-12-29T02:07:02;5.6;;;2.9;;
51194;SDS011;37259;49.972;19.850;2022-12-29T02:08:02;5.6;;;2.9;;
51194;SDS011;37259;49.972;19.850;2022-12-29T02:09:02;5.6;;;2.9;;
51194;SDS011;37259;49.972;19.850;2022-12-29T02:10:02;5.6;;;2.9;;
51194;SDS011;37259;49.972;19.850;2022-12-29T02:11:02;5.6;;;2.9;;
51194;SDS011;37259;49.972;19.850;2022-12-29T02:12:02;5.6;;;2.9;;
51194;SDS011;37259;49.972;19.850;2022-12-29T02:13:02;5.6;;;2.9;;
51194;SDS011;37259;49.972;19.850;2022-12-29T02:14:04;5.6;;;2.9;;
51194;SDS011;37259;49.972;19.850;2022-12-29T02:15:02;5.6;;;2.9;;
51194;SDS011;37259;49.972;19.850;2022-12-29T02:16:04;5.6;;;2.9;;
51194;SDS011;37259;49.972;19.850;2022-12-29T02:17:04;5.6;;;2.9;;
51194;SDS011;37259;49.972;19.850;2022-12-29T02:18:08;5.6;;;2.9;;
51194;SDS011;37259;49.972;19.850;2022-12-29T02:19:07;5.6;;;2.9;;
51194;SDS011;37259;49.972;19.850;2022-12-29T02:20:11;5.6;;;2.9;;
51194;SDS011;37259;49.972;19.850;2022-12-29T02:21:09;5.6;;;2.9;;
51194;SDS011;37259;49.972;19.850;2022-12-29T02:22:04;5.6;;;2.9;;
51194;SDS011;37259;49.972;19.850;2022-12-29T02:23:07;5.6;;;2.9;;
51194;SDS011;37259;49.972;19.850;2022-12-29T02:24:06;5.6;;;2.9;;
51194;SDS011;37259;49.972;19.850;2022-12-29T02:25:12;5.6;;;2.9;;
51194;SDS011;37259;49.972;19.850;2022-12-29T02:26:07;5.6;;;2.9;;
51194;SDS011;37259;49.972;19.850;2022-12-29T02:27:09;5.6;;;2.9;;
51194;SDS011;37259;49.972;19.850;2022-12-29T02:28:08;5.6;;;2.9;;
51194;SDS011;37259;49.972;19.850;2022-12-29T02:29:08;5.6;;;2.9;;
51194;SDS011;37259;49.972;19.850;2022-12-29T02:30:03;4.7;;;3;;
51194;SDS011;37259;49.972;19.850;2022-12-29T02:31:04;4.7;;;3;;
51194;SDS011;37259;49.972;19.850;2022-12-29T02:32:03;4.7;;;3;;
51194;SDS011;37259;49.972;19.850;2022-12-29T02:33:04;4.7;;;3;;
51194;SDS011;37259;49.972;19.850;2022-12-29T02:34:04;4.7;;;3;;
51194;SDS011;37259;49.972;19.850;2022-12-29T02:35:05;4.7;;;3;;
51194;SDS011;37259;49.972;19.850;2022-12-29T02:36:06;4.7;;;3;;
51194;SDS011;37259;49.972;19.850;2022-12-29T02:37:03;4.7;;;3;;
51194;SDS011;37259;49.972;19.850;2022-12-29T02:38:03;4.7;;;3;;
51194;SDS011;37259;49.972;19.850;2022-12-29T02:39:04;4.7;;;3;;
51194;SDS011;37259;49.972;19.850;2022-12-29T02:40:07;4.7;;;3;;
51194;SDS011;37259;49.972;19.850;2022-12-29T02:41:03;4.7;;;3;;
51194;SDS011;37259;49.972;19.850;2022-12-29T02:42:03;4.7;;;3;;
51194;SDS011;37259;49.972;19.850;2022-12-29T02:43:03;4.7;;;3;;
51194;SDS011;37259;49.972;19.850;2022-12-29T02:44:04;4.7;;;3;;
51194;SDS011;37259;49.972;19.850;2022-12-29T02:45:03;4.7;;;3;;
51194;SDS011;37259;49.972;19.850;2022-12-29T02:46:03;4.7;;;3;;
51194;SDS011;37259;49.972;19.850;2022-12-29T02:47:04;4.7;;;3;;
51194;SDS011;37259;49.972;19.850;2022-12-29T02:48:03;4.7;;;3;;
51194;SDS011;37259;49.972;19.850;2022-12-29T02:49:04;4.7;;;3;;
51194;SDS011;37259;49.972;19.850;2022-12-29T02:50:03;4.7;;;3;;
51194;SDS011;37259;49.972;19.850;2022-12-29T02:51:03;4.7;;;3;;
51194;SDS011;37259;49.972;19.850;2022-12-29T02:52:03;4.7;;;3;;
51194;SDS011;37259;49.972;19.850;2022-12-29T02:53:03;4.7;;;3;;
51194;SDS011;37259;49.972;19.850;2022-12-29T02:54:02;4.7;;;3;;
51194;SDS011;37259;49.972;19.850;2022-12-29T02:55:02;4.7;;;3;;
51194;SDS011;37259;49.972;19.850;2022-12-29T02:56:02;4.7;;;3;;
51194;SDS011;37259;49.972;19.850;2022-12-29T02:57:02;4.7;;;3;;
51194;SDS011;37259;49.972;19.850;2022-12-29T02:58:13;4.7;;;3;;
51194;SDS011;37259;49.972;19.850;2022-12-29T02:59:02;4.7;;;3;;
51194;SDS011;37259;49.972;19.850;2022-12-29T03:00:04;12.4;;;6.3;;
51194;SDS011;37259;49.972;19.850;2022-12-29T03:01:06;12.4;;;6.3;;
51194;SDS011;37259;49.972;19.850;2022-12-29T03:02:06;12.4;;;6.3;;
51194;SDS011;37259;49.972;19.850;2022-12-29T03:03:06;12.4;;;6.3;;
51194;SDS011;37259;49.972;19.850;2022-12-29T03:04:07;12.4;;;6.3;;
51194;SDS011;37259;49.972;19.850;2022-12-29T03:05:06;12.4;;;6.3;;
51194;SDS011;37259;49.972;19.850;2022-12-29T03:06:07;12.4;;;6.3;;
51194;SDS011;37259;49.972;19.850;2022-12-29T03:07:04;12.4;;;6.3;;
51194;SDS011;37259;49.972;19.850;2022-12-29T03:08:04;12.4;;;6.3;;
51194;SDS011;37259;49.972;19.850;2022-12-29T03:09:03;12.4;;;6.3;;
51194;SDS011;37259;49.972;19.850;2022-12-29T03:10:04;12.4;;;6.3;;
51194;SDS011;37259;49.972;19.850;2022-12-29T03:11:02;12.4;;;6.3;;
51194;SDS011;37259;49.972;19.850;2022-12-29T03:12:03;12.4;;;6.3;;
51194;SDS011;37259;49.972;19.850;2022-12-29T03:13:04;12.4;;;6.3;;
51194;SDS011;37259;49.972;19.850;2022-12-29T03:14:05;12.4;;;6.3;;
51194;SDS011;37259;49.972;19.850;2022-12-29T03:15:03;12.4;;;6.3;;
51194;SDS011;37259;49.972;19.850;2022-12-29T03:16:03;12.4;;;6.3;;
51194;SDS011;37259;49.972;19.850;2022-12-29T03:17:03;12.4;;;6.3;;
51194;SDS011;37259;49.972;19.850;2022-12-29T03:18:04;12.4;;;6.3;;
51194;SDS011;37259;49.972;19.850;2022-12-29T03:19:04;12.4;;;6.3;;
51194;SDS011;37259;49.972;19.850;2022-12-29T03:20:04;12.4;;;6.3;;
51194;SDS011;37259;49.972;19.850;2022-12-29T03:21:02;12.4;;;6.3;;
51194;SDS011;37259;49.972;19.850;2022-12-29T03:22:03;12.4;;;6.3;;
51194;SDS011;37259;49.972;19.850;2022-12-29T03:23:02;12.4;;;6.3;;
51194;SDS011;37259;49.972;19.850;2022-12-29T03:24:02;12.4;;;6.3;;
51194;SDS011;37259;49.972;19.850;2022-12-29T03:25:03;12.4;;;6.3;;
51194;SDS011;37259;49.972;19.850;2022-12-29T03:26:03;12.4;;;6.3;;
51194;SDS011;37259;49.972;19.850;2022-12-29T03:27:02;12.4;;;6.3;;
51194;SDS011;37259;49.972;19.850;2022-12-29T03:28:03;12.4;;;6.3;;
51194;SDS011;37259;49.972;19.850;2022-12-29T03:29:02;12.4;;;6.3;;
51194;SDS011;37259;49.972;19.850;2022-12-29T03:30:03;14.8;;;8.7;;
51194;SDS011;37259;49.972;19.850;2022-12-29T03:31:02;14.8;;;8.7;;
51194;SDS011;37259;49.972;19.850;2022-12-29T03:32:02;14.8;;;8.7;;
51194;SDS011;37259;49.972;19.850;2022-12-29T03:33:03;14.8;;;8.7;;
51194;SDS011;37259;49.972;19.850;2022-12-29T03:34:02;14.8;;;8.7;;
51194;SDS011;37259;49.972;19.850;2022-12-29T03:35:02;14.8;;;8.7;;
51194;SDS011;37259;49.972;19.850;2022-12-29T03:36:03;14.8;;;8.7;;
51194;SDS011;37259;49.972;19.850;2022-12-29T03:37:05;14.8;;;8.7;;
51194;SDS011;37259;49.972;19.850;2022-12-29T03:38:04;14.8;;;8.7;;
51194;SDS011;37259;49.972;19.850;2022-12-29T03:39:03;14.8;;;8.7;;
51194;SDS011;37259;49.972;19.850;2022-12-29T03:40:02;14.8;;;8.7;;
51194;SDS011;37259;49.972;19.850;2022-12-29T03:41:04;14.8;;;8.7;;
51194;SDS011;37259;49.972;19.850;2022-12-29T03:42:02;14.8;;;8.7;;
51194;SDS011;37259;49.972;19.850;2022-12-29T03:43:02;14.8;;;8.7;;
51194;SDS011;37259;49.972;19.850;2022-12-29T03:44:02;14.8;;;8.7;;
51194;SDS011;37259;49.972;19.850;2022-12-29T03:45:03;14.8;;;8.7;;
51194;SDS011;37259;49.972;19.850;2022-12-29T03:46:02;14.8;;;8.7;;
51194;SDS011;37259;49.972;19.850;2022-12-29T03:47:02;14.8;;;8.7;;
51194;SDS011;37259;49.972;19.850;2022-12-29T03:48:02;14.8;;;8.7;;
51194;SDS011;37259;49.972;19.850;2022-12-29T03:49:02;14.8;;;8.7;;
51194;SDS011;37259;49.972;19.850;2022-12-29T03:50:02;14.8;;;8.7;;
51194;SDS011;37259;49.972;19.850;2022-12-29T03:51:02;14.8;;;8.7;;
51194;SDS011;37259;49.972;19.850;2022-12-29T03:52:02;14.8;;;8.7;;
51194;SDS011;37259;49.972;19.850;2022-12-29T03:53:02;14.8;;;8.7;;
51194;SDS011;37259;49.972;19.850;2022-12-29T03:54:02;14.8;;;8.7;;
51194;SDS011;37259;49.972;19.850;2022-12-29T03:55:02;14.8;;;8.7;;
51194;SDS011;37259;49.972;19.850;2022-12-29T03:56:02;14.8;;;8.7;;
51194;SDS011;37259;49.972;19.850;2022-12-29T03:57:02;14.8;;;8.7;;
51194;SDS011;37259;49.972;19.850;2022-12-29T03:58:02;14.8;;;8.7;;
51194;SDS011;37259;49.972;19.850;2022-12-29T03:59:02;14.8;;;8.7;;
51194;SDS011;37259;49.972;19.850;2022-12-29T04:00:03;5;;;2.9;;
51194;SDS011;37259;49.972;19.850;2022-12-29T04:01:02;5;;;2.9;;
51194;SDS011;37259;49.972;19.850;2022-12-29T04:02:02;5;;;2.9;;
51194;SDS011;37259;49.972;19.850;2022-12-29T04:03:02;5;;;2.9;;
51194;SDS011;37259;49.972;19.850;2022-12-29T04:04:02;5;;;2.9;;
51194;SDS011;37259;49.972;19.850;2022-12-29T04:05:02;5;;;2.9;;
51194;SDS011;37259;49.972;19.850;2022-12-29T04:06:02;5;;;2.9;;
51194;SDS011;37259;49.972;19.850;2022-12-29T04:07:02;5;;;2.9;;
51194;SDS011;37259;49.972;19.850;2022-12-29T04:08:02;5;;;2.9;;
51194;SDS011;37259;49.972;19.850;2022-12-29T04:09:02;5;;;2.9;;
51194;SDS011;37259;49.972;19.850;2022-12-29T04:10:02;5;;;2.9;;
51194;SDS011;37259;49.972;19.850;2022-12-29T04:11:02;5;;;2.9;;
51194;SDS011;37259;49.972;19.850;2022-12-29T04:12:02;5;;;2.9;;
51194;SDS011;37259;49.972;19.850;2022-12-29T04:13:02;5;;;2.9;;
51194;SDS011;37259;49.972;19.850;2022-12-29T04:14:02;5;;;2.9;;
51194;SDS011;37259;49.972;19.850;2022-12-29T04:15:02;5;;;2.9;;
51194;SDS011;37259;49.972;19.850;2022-12-29T04:16:02;5;;;2.9;;
51194;SDS011;37259;49.972;19.850;2022-12-29T04:17:02;5;;;2.9;;
51194;SDS011;37259;49.972;19.850;2022-12-29T04:18:02;5;;;2.9;;
51194;SDS011;37259;49.972;19.850;2022-12-29T04:19:02;5;;;2.9;;
51194;SDS011;37259;49.972;19.850;2022-12-29T04:20:02;5;;;2.9;;
51194;SDS011;37259;49.972;19.850;2022-12-29T04:21:02;5;;;2.9;;
51194;SDS011;37259;49.972;19.850;2022-12-29T04:22:02;5;;;2.9;;
51194;SDS011;37259;49.972;19.850;2022-12-29T04:23:02;5;;;2.9;;
51194;SDS011;37259;49.972;19.850;2022-12-29T04:24:02;5;;;2.9;;
51194;SDS011;37259;49.972;19.850;2022-12-29T04:25:02;5;;;2.9;;
51194;SDS011;37259;49.972;19.850;2022-12-29T04:26:02;5;;;2.9;;
51194;SDS011;37259;49.972;19.850;2022-12-29T04:27:02;5;;;2.9;;
51194;SDS011;37259;49.972;19.850;2022-12-29T04:28:02;5;;;2.9;;
51194;SDS011;37259;49.972;19.850;2022-12-29T04:29:02;5;;;2.9;;
51194;SDS011;37259;49.972;19.850;2022-12-29T04:30:02;9.2;;;4.6;;
51194;SDS011;37259;49.972;19.850;2022-12-29T04:31:02;9.2;;;4.6;;
51194;SDS011;37259;49.972;19.850;2022-12-29T04:32:02;9.2;;;4.6;;
51194;SDS011;37259;49.972;19.850;2022-12-29T04:33:02;9.2;;;4.6;;
51194;SDS011;37259;49.972;19.850;2022-12-29T04:34:02;9.2;;;4.6;;
51194;SDS011;37259;49.972;19.850;2022-12-29T04:35:02;9.2;;;4.6;;
51194;SDS011;37259;49.972;19.850;2022-12-29T04:36:02;9.2;;;4.6;;
51194;SDS011;37259;49.972;19.850;2022-12-29T04:37:02;9.2;;;4.6;;
51194;SDS011;37259;49.972;19.850;2022-12-29T04:38:02;9.2;;;4.6;;
51194;SDS011;37259;49.972;19.850;2022-12-29T04:39:02;9.2;;;4.6;;
51194;SDS011;37259;49.972;19.850;2022-12-29T04:40:02;9.2;;;4.6;;
51194;SDS011;37259;49.972;19.850;2022-12-29T04:41:02;9.2;;;4.6;;
51194;SDS011;37259;49.972;19.850;2022-12-29T04:42:02;9.2;;;4.6;;
51194;SDS011;37259;49.972;19.850;2022-12-29T04:43:02;9.2;;;4.6;;
51194;SDS011;37259;49.972;19.850;2022-12-29T04:44:02;9.2;;;4.6;;
51194;SDS011;37259;49.972;19.850;2022-12-29T04:45:02;9.2;;;4.6;;
51194;SDS011;37259;49.972;19.850;2022-12-29T04:46:02;9.2;;;4.6;;
51194;SDS011;37259;49.972;19.850;2022-12-29T04:47:02;9.2;;;4.6;;
51194;SDS011;37259;49.972;19.850;2022-12-29T04:48:02;9.2;;;4.6;;
51194;SDS011;37259;49.972;19.850;2022-12-29T04:49:02;9.2;;;4.6;;
51194;SDS011;37259;49.972;19.850;2022-12-29T04:50:02;9.2;;;4.6;;
51194;SDS011;37259;49.972;19.850;2022-12-29T04:51:02;9.2;;;4.6;;
51194;SDS011;37259;49.972;19.850;2022-12-29T04:52:02;9.2;;;4.6;;
51194;SDS011;37259;49.972;19.850;2022-12-29T04:53:02;9.2;;;4.6;;
51194;SDS011;37259;49.972;19.850;2022-12-29T04:54:02;9.2;;;4.6;;
51194;SDS011;37259;49.972;19.850;2022-12-29T04:55:02;9.2;;;4.6;;
51194;SDS011;37259;49.972;19.850;2022-12-29T04:56:02;9.2;;;4.6;;
51194;SDS011;37259;49.972;19.850;2022-12-29T04:57:02;9.2;;;4.6;;
51194;SDS011;37259;49.972;19.850;2022-12-29T04:58:02;9.2;;;4.6;;
51194;SDS011;37259;49.972;19.850;2022-12-29T04:59:02;9.2;;;4.6;;
51194;SDS011;37259;49.972;19.850;2022-12-29T05:00:02;7.1;;;3.6;;
51194;SDS011;37259;49.972;19.850;2022-12-29T05:01:02;7.1;;;3.6;;
51194;SDS011;37259;49.972;19.850;2022-12-29T05:02:02;7.1;;;3.6;;
51194;SDS011;37259;49.972;19.850;2022-12-29T05:03:02;7.1;;;3.6;;
51194;SDS011;37259;49.972;19.850;2022-12-29T05:04:02;7.1;;;3.6;;
51194;SDS011;37259;49.972;19.850;2022-12-29T05:05:02;7.1;;;3.6;;
51194;SDS011;37259;49.972;19.850;2022-12-29T05:06:02;7.1;;;3.6;;
51194;SDS011;37259;49.972;19.850;2022-12-29T05:07:02;7.1;;;3.6;;
51194;SDS011;37259;49.972;19.850;2022-12-29T05:08:02;7.1;;;3.6;;
51194;SDS011;37259;49.972;19.850;2022-12-29T05:09:02;7.1;;;3.6;;
51194;SDS011;37259;49.972;19.850;2022-12-29T05:10:02;7.1;;;3.6;;
51194;SDS011;37259;49.972;19.850;2022-12-29T05:11:02;7.1;;;3.6;;
51194;SDS011;37259;49.972;19.850;2022-12-29T05:12:02;7.1;;;3.6;;
51194;SDS011;37259;49.972;19.850;2022-12-29T05:13:02;7.1;;;3.6;;
51194;SDS011;37259;49.972;19.850;2022-12-29T05:14:02;7.1;;;3.6;;
51194;SDS011;37259;49.972;19.850;2022-12-29T05:15:02;7.1;;;3.6;;
51194;SDS011;37259;49.972;19.850;2022-12-29T05:16:02;7.1;;;3.6;;
51194;SDS011;37259;49.972;19.850;2022-12-29T05:18:18;7.1;;;3.6;;
51194;SDS011;37259;49.972;19.850;2022-12-29T05:19:02;7.1;;;3.6;;
51194;SDS011;37259;49.972;19.850;2022-12-29T05:20:02;7.1;;;3.6;;
51194;SDS011;37259;49.972;19.850;2022-12-29T05:21:02;7.1;;;3.6;;
51194;SDS011;37259;49.972;19.850;2022-12-29T05:22:02;7.1;;;3.6;;
51194;SDS011;37259;49.972;19.850;2022-12-29T05:23:02;7.1;;;3.6;;
51194;SDS011;37259;49.972;19.850;2022-12-29T05:24:02;7.1;;;3.6;;
51194;SDS011;37259;49.972;19.850;2022-12-29T05:25:02;7.1;;;3.6;;
51194;SDS011;37259;49.972;19.850;2022-12-29T05:26:02;7.1;;;3.6;;
51194;SDS011;37259;49.972;19.850;2022-12-29T05:27:02;7.1;;;3.6;;
51194;SDS011;37259;49.972;19.850;2022-12-29T05:28:02;7.1;;;3.6;;
51194;SDS011;37259;49.972;19.850;2022-12-29T05:29:02;7.1;;;3.6;;
51194;SDS011;37259;49.972;19.850;2022-12-29T05:30:02;5.3;;;3.1;;
51194;SDS011;37259;49.972;19.850;2022-12-29T05:31:02;5.3;;;3.1;;
51194;SDS011;37259;49.972;19.850;2022-12-29T05:32:02;5.3;;;3.1;;
51194;SDS011;37259;49.972;19.850;2022-12-29T05:33:02;5.3;;;3.1;;
51194;SDS011;37259;49.972;19.850;2022-12-29T05:34:02;5.3;;;3.1;;
51194;SDS011;37259;49.972;19.850;2022-12-29T05:35:02;5.3;;;3.1;;
51194;SDS011;37259;49.972;19.850;2022-12-29T05:36:03;5.3;;;3.1;;
51194;SDS011;37259;49.972;19.850;2022-12-29T05:37:02;5.3;;;3.1;;
51194;SDS011;37259;49.972;19.850;2022-12-29T05:38:02;5.3;;;3.1;;
51194;SDS011;37259;49.972;19.850;2022-12-29T05:39:02;5.3;;;3.1;;
51194;SDS011;37259;49.972;19.850;2022-12-29T05:40:02;5.3;;;3.1;;
51194;SDS011;37259;49.972;19.850;2022-12-29T05:41:02;5.3;;;3.1;;
51194;SDS011;37259;49.972;19.850;2022-12-29T05:42:02;5.3;;;3.1;;
51194;SDS011;37259;49.972;19.850;2022-12-29T05:43:02;5.3;;;3.1;;
51194;SDS011;37259;49.972;19.850;2022-12-29T05:44:02;5.3;;;3.1;;
51194;SDS011;37259;49.972;19.850;2022-12-29T05:45:02;5.3;;;3.1;;
51194;SDS011;37259;49.972;19.850;2022-12-29T05:46:02;5.3;;;3.1;;
51194;SDS011;37259;49.972;19.850;2022-12-29T05:47:02;5.3;;;3.1;;
51194;SDS011;37259;49.972;19.850;2022-12-29T05:48:02;5.3;;;3.1;;
51194;SDS011;37259;49.972;19.850;2022-12-29T05:49:02;5.3;;;3.1;;
51194;SDS011;37259;49.972;19.850;2022-12-29T05:50:02;5.3;;;3.1;;
51194;SDS011;37259;49.972;19.850;2022-12-29T05:51:02;5.3;;;3.1;;
51194;SDS011;37259;49.972;19.850;2022-12-29T05:52:50;5.3;;;3.1;;
51194;SDS011;37259;49.972;19.850;2022-12-29T05:53:02;5.3;;;3.1;;
51194;SDS011;37259;49.972;19.850;2022-12-29T05:54:02;5.3;;;3.1;;
51194;SDS011;37259;49.972;19.850;2022-12-29T05:55:02;5.3;;;3.1;;
51194;SDS011;37259;49.972;19.850;2022-12-29T05:56:02;5.3;;;3.1;;
51194;SDS011;37259;49.972;19.850;2022-12-29T05:57:02;5.3;;;3.1;;
51194;SDS011;37259;49.972;19.850;2022-12-29T05:58:02;5.3;;;3.1;;
51194;SDS011;37259;49.972;19.850;2022-12-29T05:59:02;5.3;;;3.1;;
51194;SDS011;37259;49.972;19.850;2022-12-29T06:00:02;6.1;;;3;;
51194;SDS011;37259;49.972;19.850;2022-12-29T06:01:02;6.1;;;3;;
51194;SDS011;37259;49.972;19.850;2022-12-29T06:02:02;6.1;;;3;;
51194;SDS011;37259;49.972;19.850;2022-12-29T06:03:02;6.1;;;3;;
51194;SDS011;37259;49.972;19.850;2022-12-29T06:04:02;6.1;;;3;;
51194;SDS011;37259;49.972;19.850;2022-12-29T06:05:02;6.1;;;3;;
51194;SDS011;37259;49.972;19.850;2022-12-29T06:06:02;6.1;;;3;;
51194;SDS011;37259;49.972;19.850;2022-12-29T06:07:02;6.1;;;3;;
51194;SDS011;37259;49.972;19.850;2022-12-29T06:08:02;6.1;;;3;;